createdAt,value
2023-01-20T00:00:46.279Z,7.50
2023-01-20T00:03:13.054Z,7.50
2023-01-20T00:05:39.719Z,7.50
2023-01-20T00:08:06.350Z,7.40
2023-01-20T00:10:32.991Z,7.40
2023-01-20T00:12:59.607Z,7.40
2023-01-20T00:15:26.918Z,7.40
2023-01-20T00:17:53.637Z,7.30
2023-01-20T00:20:20.379Z,7.20
2023-01-20T00:22:47.022Z,7.20
2023-01-20T00:25:14.044Z,7.20
2023-01-20T00:27:40.892Z,7.10
2023-01-20T00:30:08.308Z,7.10
2023-01-20T00:32:39.394Z,7.10
2023-01-20T00:35:07.887Z,7.10
2023-01-20T00:37:34.584Z,7.20
2023-01-20T00:40:01.272Z,7.20
2023-01-20T00:42:28.100Z,7.20
2023-01-20T00:44:54.713Z,7.30
2023-01-20T00:47:21.420Z,7.30
2023-01-20T00:49:48.633Z,7.30
2023-01-20T00:52:15.448Z,7.40
2023-01-20T00:54:42.112Z,7.40
2023-01-20T00:57:08.845Z,7.40
2023-01-20T00:59:35.474Z,7.40
2023-01-20T01:02:02.552Z,7.40
2023-01-20T01:04:29.406Z,7.40
2023-01-20T01:06:56.580Z,7.40
2023-01-20T01:09:23.214Z,7.40
2023-01-20T01:11:49.889Z,7.40
2023-01-20T01:14:17.007Z,7.40
2023-01-20T01:16:44.575Z,7.40
2023-01-20T01:19:11.245Z,7.40
2023-01-20T01:21:37.881Z,7.40
2023-01-20T01:24:11.120Z,7.40
2023-01-20T01:26:37.848Z,7.40
2023-01-20T01:29:04.580Z,7.40
2023-01-20T01:31:31.379Z,7.40
2023-01-20T01:33:58.054Z,7.40
2023-01-20T01:36:24.800Z,7.40
2023-01-20T01:38:57.205Z,7.40
2023-01-20T01:41:26.205Z,7.40
2023-01-20T01:44:09.333Z,7.40
2023-01-20T01:46:37.953Z,7.40
2023-01-20T01:49:17.871Z,7.30
2023-01-20T01:52:13.942Z,7.30
2023-01-20T01:54:43.597Z,7.30
2023-01-20T01:57:10.578Z,7.30
2023-01-20T01:59:38.110Z,7.30
2023-01-20T02:02:05.084Z,7.30
2023-01-20T02:04:33.801Z,7.30
2023-01-20T02:07:06.166Z,7.20
2023-01-20T02:09:33.163Z,7.20
2023-01-20T02:12:06.532Z,7.30
2023-01-20T02:14:50.336Z,7.20
2023-01-20T02:17:33.621Z,7.20
2023-01-20T02:20:20.822Z,7.30
2023-01-20T02:22:56.626Z,7.30
2023-01-20T02:25:47.988Z,7.30
2023-01-20T02:28:23.517Z,7.30
2023-01-20T02:31:08.706Z,7.30
2023-01-20T02:33:38.969Z,7.30
2023-01-20T02:36:38.833Z,7.30
2023-01-20T02:39:27.230Z,7.40
2023-01-20T02:42:18.342Z,7.30
2023-01-20T02:44:59.598Z,7.40
2023-01-20T02:47:38.356Z,7.40
2023-01-20T02:50:09.212Z,7.40
2023-01-20T02:52:39.859Z,7.40
2023-01-20T02:55:09.800Z,7.50
2023-01-20T02:57:45.509Z,7.40
2023-01-20T03:00:23.067Z,7.50
2023-01-20T03:02:53.395Z,7.50
2023-01-20T03:05:35.047Z,7.50
2023-01-20T03:08:06.475Z,7.60
2023-01-20T03:10:35.433Z,7.60
2023-01-20T03:13:21.615Z,7.50
2023-01-20T03:16:07.548Z,7.50
2023-01-20T03:18:35.280Z,7.50
2023-01-20T03:21:04.185Z,7.40
2023-01-20T03:23:39.897Z,7.40
2023-01-20T03:26:10.905Z,7.40
2023-01-20T03:28:37.766Z,7.40
2023-01-20T03:31:22.880Z,7.40
2023-01-20T03:33:53.091Z,7.30
2023-01-20T03:36:23.260Z,7.30
2023-01-20T03:38:50.796Z,7.30
2023-01-20T03:41:25.938Z,7.30
2023-01-20T03:44:09.551Z,7.30
2023-01-20T03:46:53.109Z,7.20
2023-01-20T03:49:46.041Z,7.20
2023-01-20T03:52:24.214Z,7.20
2023-01-20T03:55:16.654Z,7.20
2023-01-20T03:57:51.174Z,7.20
2023-01-20T04:00:21.225Z,7.20
2023-01-20T04:02:49.653Z,7.20
2023-01-20T04:05:17.285Z,7.20
2023-01-20T04:07:46.051Z,7.30
2023-01-20T04:10:17.281Z,7.30
2023-01-20T04:12:43.945Z,7.30
2023-01-20T04:15:10.950Z,7.30
2023-01-20T04:17:37.636Z,7.30
2023-01-20T04:20:08.846Z,7.30
2023-01-20T04:22:43.895Z,7.30
2023-01-20T04:25:16.626Z,7.30
2023-01-20T04:27:43.442Z,7.20
2023-01-20T04:30:10.829Z,7.30
2023-01-20T04:32:37.483Z,7.30
2023-01-20T04:35:04.387Z,7.30
2023-01-20T04:37:31.023Z,7.30
2023-01-20T04:39:57.692Z,7.30
2023-01-20T04:42:24.381Z,7.30
2023-01-20T04:44:51.047Z,7.30
2023-01-20T04:47:17.705Z,7.40
2023-01-20T04:49:44.364Z,7.30
2023-01-20T04:52:11.044Z,7.30
2023-01-20T04:54:37.693Z,7.30
2023-01-20T04:57:04.348Z,7.30
2023-01-20T04:59:31.135Z,7.30
2023-01-20T05:01:57.877Z,7.30
2023-01-20T05:04:24.668Z,7.20
2023-01-20T05:06:51.353Z,7.20
2023-01-20T05:09:18.036Z,7.20
2023-01-20T05:11:44.843Z,7.20
2023-01-20T05:14:12.481Z,7.10
2023-01-20T05:16:39.127Z,7.10
2023-01-20T05:19:06.975Z,7.20
2023-01-20T05:21:33.740Z,7.10
2023-01-20T05:24:00.377Z,7.10
2023-01-20T05:26:27.175Z,7.10
2023-01-20T05:28:54.053Z,7.10
2023-01-20T05:31:20.905Z,7.10
2023-01-20T05:33:47.730Z,7.10
2023-01-20T05:36:14.425Z,7.10
2023-01-20T05:38:41.070Z,7.10
2023-01-20T05:41:09.360Z,7.10
2023-01-20T05:43:36.468Z,7.10
2023-01-20T05:46:03.746Z,7.10
2023-01-20T05:48:30.815Z,7.10
2023-01-20T05:50:57.652Z,7.10
2023-01-20T05:53:24.566Z,7.10
2023-01-20T05:56:02.339Z,7.10
2023-01-20T05:58:30.011Z,7.10
2023-01-20T06:01:07.699Z,7.10
2023-01-20T06:03:34.820Z,7.10
2023-01-20T06:06:06.412Z,7.10
2023-01-20T06:08:33.887Z,7.00
2023-01-20T06:11:00.578Z,7.10
2023-01-20T06:13:27.316Z,7.00
2023-01-20T06:15:55.333Z,7.00
2023-01-20T06:18:23.070Z,7.00
2023-01-20T06:20:50.109Z,6.90
2023-01-20T06:23:18.824Z,6.90
2023-01-20T06:25:45.494Z,6.90
2023-01-20T06:28:12.152Z,6.90
2023-01-20T06:30:38.937Z,6.90
2023-01-20T06:33:10.528Z,7.00
2023-01-20T06:35:38.088Z,6.90
2023-01-20T06:38:05.086Z,6.90
2023-01-20T06:40:31.922Z,7.00
2023-01-20T06:42:59.166Z,7.00
2023-01-20T06:45:25.838Z,7.10
2023-01-20T06:47:52.538Z,7.10
2023-01-20T06:50:34.325Z,7.10
2023-01-20T06:53:01.016Z,7.10
2023-01-20T06:55:27.846Z,7.10
2023-01-20T06:57:54.724Z,7.10
2023-01-20T07:00:21.969Z,7.10
2023-01-20T07:02:49.610Z,7.10
2023-01-20T07:05:16.688Z,7.00
2023-01-20T07:07:46.564Z,7.10
2023-01-20T07:10:13.545Z,7.10
2023-01-20T07:12:40.191Z,7.10
2023-01-20T07:15:07.368Z,7.10
2023-01-20T07:17:34.078Z,7.10
2023-01-20T07:20:00.709Z,7.20
2023-01-20T07:22:27.359Z,7.20
2023-01-20T07:24:53.989Z,7.20
2023-01-20T07:27:20.597Z,7.20
2023-01-20T07:29:47.217Z,7.20
2023-01-20T07:32:13.878Z,7.20
2023-01-20T07:34:40.517Z,7.20
2023-01-20T07:37:07.229Z,7.20
2023-01-20T07:39:36.180Z,7.20
2023-01-20T07:42:02.873Z,7.20
2023-01-20T07:44:29.564Z,7.10
2023-01-20T07:46:57.132Z,7.10
2023-01-20T07:49:23.973Z,7.10
2023-01-20T07:51:50.694Z,7.20
2023-01-20T07:54:17.327Z,7.10
2023-01-20T07:56:43.964Z,7.10
2023-01-20T07:59:10.735Z,7.10
2023-01-20T08:01:37.661Z,7.10
2023-01-20T08:04:04.450Z,7.00
2023-01-20T08:06:32.263Z,7.00
2023-01-20T08:09:02.807Z,7.00
2023-01-20T08:11:29.850Z,7.00
2023-01-20T08:13:59.105Z,7.00
2023-01-20T08:16:25.794Z,7.00
2023-01-20T08:18:54.785Z,6.90
2023-01-20T08:21:26.785Z,7.00
2023-01-20T08:24:02.229Z,7.00
2023-01-20T08:26:29.870Z,6.90
2023-01-20T08:29:05.579Z,6.90
2023-01-20T08:31:32.445Z,6.90
2023-01-20T08:33:59.324Z,6.90
2023-01-20T08:36:29.637Z,6.90
2023-01-20T08:38:58.092Z,6.90
2023-01-20T08:41:30.903Z,6.90
2023-01-20T08:43:59.360Z,6.90
2023-01-20T08:46:26.105Z,6.90
2023-01-20T08:48:53.667Z,6.80
2023-01-20T08:51:26.557Z,6.90
2023-01-20T08:53:53.575Z,6.90
2023-01-20T08:56:21.365Z,6.90
2023-01-20T08:58:48.266Z,6.90
2023-01-20T09:01:23.632Z,6.80
2023-01-20T09:04:04.447Z,6.90
2023-01-20T09:06:47.027Z,6.90
2023-01-20T09:09:15.405Z,6.90
2023-01-20T09:11:44.887Z,6.90
2023-01-20T09:14:12.046Z,6.90
2023-01-20T09:16:38.743Z,6.90
2023-01-20T09:19:05.399Z,6.90
2023-01-20T09:21:32.487Z,6.90
2023-01-20T09:24:00.178Z,6.90
2023-01-20T09:26:35.655Z,6.90
2023-01-20T09:29:09.216Z,6.90
2023-01-20T09:31:46.097Z,6.90
2023-01-20T09:34:19.296Z,6.90
2023-01-20T09:36:49.296Z,6.90
2023-01-20T09:39:35.317Z,6.90
2023-01-20T09:42:54.146Z,6.90
2023-01-20T09:45:42.871Z,6.90
2023-01-20T09:48:45.171Z,7.00
2023-01-20T09:51:41.655Z,7.00
2023-01-20T09:54:20.171Z,7.00
2023-01-20T09:56:49.267Z,7.00
2023-01-20T09:59:37.743Z,7.00
2023-01-20T10:02:13.756Z,7.00
2023-01-20T10:04:51.139Z,7.00
2023-01-20T10:07:34.378Z,7.00
2023-01-20T10:10:36.311Z,7.00
2023-01-20T10:13:31.503Z,7.00
2023-01-20T10:16:02.212Z,7.10
2023-01-20T10:18:51.131Z,7.10
2023-01-20T10:21:36.649Z,7.10
2023-01-20T10:24:29.511Z,7.10
2023-01-20T10:27:02.883Z,7.20
2023-01-20T10:29:52.976Z,7.30
2023-01-20T10:32:36.781Z,7.30
2023-01-20T10:35:18.381Z,7.40
2023-01-20T10:37:46.337Z,7.40
2023-01-20T10:40:35.074Z,7.50
2023-01-20T10:43:10.453Z,7.60
2023-01-20T10:45:48.996Z,7.60
2023-01-20T10:48:37.423Z,7.60
2023-01-20T10:51:45.040Z,7.70
2023-01-20T10:54:36.115Z,7.80
2023-01-20T10:57:05.700Z,7.80
2023-01-20T10:59:43.089Z,7.90
2023-01-20T11:02:26.505Z,7.90
2023-01-20T11:04:58.946Z,7.90
2023-01-20T11:07:26.793Z,8.00
2023-01-20T11:09:54.901Z,8.10
2023-01-20T11:12:32.369Z,8.10
2023-01-20T11:15:00.659Z,8.10
2023-01-20T11:17:27.350Z,8.10
2023-01-20T11:19:56.808Z,8.20
2023-01-20T11:22:31.882Z,8.20
2023-01-20T11:25:00.382Z,8.30
2023-01-20T11:27:43.871Z,8.20
2023-01-20T11:30:27.980Z,8.20
2023-01-20T11:33:18.991Z,8.30
2023-01-20T11:36:23.915Z,8.30
2023-01-20T11:38:51.957Z,8.30
2023-01-20T11:41:25.786Z,8.30
2023-01-20T11:43:56.218Z,8.30
2023-01-20T11:46:33.327Z,8.30
2023-01-20T11:49:21.983Z,8.30
2023-01-20T11:51:56.069Z,8.30
2023-01-20T11:54:28.372Z,8.40
2023-01-20T11:57:07.570Z,8.40
2023-01-20T11:59:36.881Z,8.40
2023-01-20T12:02:09.693Z,8.40
2023-01-20T12:04:56.862Z,8.40
2023-01-20T12:07:32.105Z,8.40
2023-01-20T12:10:06.016Z,8.40
2023-01-20T12:15:20.968Z,8.50
2023-01-20T12:17:58.947Z,8.50
2023-01-20T12:20:49.253Z,8.50
2023-01-20T12:23:35.229Z,8.50
2023-01-20T12:26:04.184Z,8.50
2023-01-20T12:28:52.077Z,8.50
2023-01-20T12:31:20.261Z,8.60
2023-01-20T12:33:53.320Z,8.60
2023-01-20T12:36:45.904Z,8.50
2023-01-20T12:39:36.399Z,8.60
2023-01-20T12:42:28.132Z,8.70
2023-01-20T12:45:23.915Z,8.70
2023-01-20T12:48:44.542Z,8.80
2023-01-20T12:51:22.511Z,8.80
2023-01-20T12:54:11.597Z,8.80
2023-01-20T12:56:43.966Z,8.80
2023-01-20T12:59:36.679Z,8.80
2023-01-20T13:02:28.029Z,8.80
2023-01-20T13:05:01.286Z,8.80
2023-01-20T13:07:40.828Z,8.80
2023-01-20T13:10:50.176Z,8.80
2023-01-20T13:13:56.071Z,8.90
2023-01-20T13:16:47.668Z,8.90
2023-01-20T13:19:28.250Z,8.90
2023-01-20T13:22:07.280Z,8.90
2023-01-20T13:24:34.972Z,8.90
2023-01-20T13:27:02.206Z,8.90
2023-01-20T13:29:37.813Z,8.90
2023-01-20T13:32:27.296Z,8.90
2023-01-20T13:34:54.207Z,8.90
2023-01-20T13:37:23.068Z,8.90
2023-01-20T13:39:50.480Z,8.90
2023-01-20T13:42:39.175Z,8.90
2023-01-20T13:45:16.486Z,9.00
2023-01-20T13:47:58.667Z,9.10
2023-01-20T13:50:34.255Z,9.20
2023-01-20T13:53:09.868Z,9.20
2023-01-20T13:55:45.370Z,9.20
2023-01-20T13:58:21.962Z,9.10
2023-01-20T14:00:51.089Z,9.20
2023-01-20T14:03:21.750Z,9.20
2023-01-20T14:06:14.503Z,9.20
2023-01-20T14:08:49.695Z,9.20
2023-01-20T14:11:19.603Z,9.20
2023-01-20T14:13:59.690Z,9.20
2023-01-20T14:16:38.147Z,9.20
2023-01-20T14:19:25.419Z,9.20
2023-01-20T14:21:54.770Z,9.20
2023-01-20T14:24:36.395Z,9.20
2023-01-20T14:27:32.123Z,9.20
2023-01-20T14:30:18.929Z,9.20
2023-01-20T14:32:46.209Z,9.20
2023-01-20T14:35:28.074Z,9.20
2023-01-20T14:37:54.938Z,9.20
2023-01-20T14:40:31.062Z,9.30
2023-01-20T14:43:07.923Z,9.30
2023-01-20T14:45:36.864Z,9.30
2023-01-20T14:48:05.177Z,9.30
2023-01-20T14:50:31.942Z,9.30
2023-01-20T14:52:58.938Z,9.30
2023-01-20T14:55:33.145Z,9.30
2023-01-20T14:58:01.055Z,9.30
2023-01-20T15:00:30.174Z,9.30
2023-01-20T15:03:14.200Z,9.40
2023-01-20T15:06:19.346Z,9.40
2023-01-20T15:09:04.314Z,9.40
2023-01-20T15:11:34.319Z,9.40
2023-01-20T15:14:01.250Z,9.40
2023-01-20T15:16:36.940Z,9.40
2023-01-20T15:19:19.958Z,9.30
2023-01-20T15:21:48.953Z,9.30
2023-01-20T15:24:15.523Z,9.30
2023-01-20T15:26:42.401Z,9.30
2023-01-20T15:29:32.047Z,9.20
2023-01-20T15:32:01.316Z,9.20
2023-01-20T15:34:29.664Z,9.10
2023-01-20T15:36:56.834Z,9.20
2023-01-20T15:39:30.217Z,9.20
2023-01-20T15:42:01.392Z,9.20
2023-01-20T15:44:28.146Z,9.20
2023-01-20T15:46:57.300Z,9.20
2023-01-20T15:49:25.271Z,9.20
2023-01-20T15:51:52.145Z,9.20
2023-01-20T15:54:19.079Z,9.20
2023-01-20T15:56:45.725Z,9.30
2023-01-20T15:59:14.770Z,9.30
2023-01-20T16:01:41.912Z,9.30
2023-01-20T16:04:10.178Z,9.40
2023-01-20T16:06:37.550Z,9.40
2023-01-20T16:09:25.353Z,9.40
2023-01-20T16:11:52.944Z,9.40
2023-01-20T16:14:19.611Z,9.40
2023-01-20T16:16:46.651Z,9.40
2023-01-20T16:19:15.063Z,9.40
2023-01-20T16:21:45.075Z,9.40
2023-01-20T16:24:12.528Z,9.40
2023-01-20T16:26:39.267Z,9.40
2023-01-20T16:29:05.962Z,9.40
2023-01-20T16:31:33.505Z,9.40
2023-01-20T16:34:00.488Z,9.40
2023-01-20T16:36:27.347Z,9.40
2023-01-20T16:38:54.366Z,9.40
2023-01-20T16:41:28.661Z,9.50
2023-01-20T16:43:56.096Z,9.50
2023-01-20T16:46:25.554Z,9.60
2023-01-20T16:53:53.185Z,9.60
2023-01-20T16:56:27.773Z,10.00
2023-01-20T16:58:57.797Z,10.10
2023-01-20T17:01:25.243Z,10.30
2023-01-20T17:03:56.802Z,10.50
2023-01-20T17:08:54.273Z,10.80
2023-01-20T17:16:16.893Z,10.90
2023-01-20T17:18:46.699Z,11.20
2023-01-20T17:23:41.774Z,11.30
2023-01-20T17:26:09.690Z,11.50
2023-01-20T17:28:36.544Z,11.60
2023-01-20T17:31:05.590Z,11.80
2023-01-20T17:33:32.606Z,11.80
2023-01-20T17:36:01.585Z,11.90
2023-01-20T17:38:29.980Z,12.00
2023-01-20T17:41:07.451Z,12.10
2023-01-20T17:43:39.852Z,12.20
2023-01-20T17:46:14.814Z,12.20
2023-01-20T17:48:41.911Z,12.20
2023-01-20T17:51:10.631Z,12.20
2023-01-20T17:53:37.457Z,12.30
2023-01-20T17:58:49.584Z,12.30
2023-01-20T18:01:19.219Z,12.30
2023-01-20T18:03:47.850Z,12.30
2023-01-20T18:06:16.439Z,12.30
2023-01-20T18:08:50.156Z,12.30
2023-01-20T18:11:19.526Z,12.30
2023-01-20T18:13:47.404Z,12.40
2023-01-20T18:16:17.433Z,12.40
2023-01-20T18:18:45.818Z,12.40
2023-01-20T18:21:23.483Z,12.40
2023-01-20T18:23:51.449Z,12.40
2023-01-20T18:26:21.272Z,12.30
2023-01-20T18:28:48.743Z,12.30
2023-01-20T18:31:18.226Z,12.30
2023-01-20T18:33:48.045Z,12.30
2023-01-20T18:36:17.819Z,12.30
2023-01-20T18:38:49.732Z,12.20
2023-01-20T18:41:16.723Z,12.20
2023-01-20T18:43:43.378Z,12.20
2023-01-20T18:46:10.593Z,12.10
2023-01-20T18:48:39.119Z,12.00
2023-01-20T18:51:06.680Z,12.00
2023-01-20T18:53:33.479Z,12.00
2023-01-20T18:56:05.580Z,11.90
2023-01-20T18:58:37.278Z,11.90
2023-01-20T19:01:04.021Z,11.90
2023-01-20T19:03:31.021Z,11.90
2023-01-20T19:06:05.917Z,11.90
2023-01-20T19:08:32.703Z,11.90
2023-01-20T19:11:05.118Z,11.90
2023-01-20T19:13:32.608Z,11.90
2023-01-20T19:15:59.480Z,12.00
2023-01-20T19:18:26.259Z,12.00
2023-01-20T19:20:52.995Z,12.10
2023-01-20T19:23:20.148Z,12.10
2023-01-20T19:25:46.913Z,12.20
2023-01-20T19:28:14.419Z,12.30
2023-01-20T19:30:41.717Z,12.30
2023-01-20T19:33:12.157Z,12.40
2023-01-20T19:35:41.230Z,12.40
2023-01-20T19:38:08.776Z,12.40
2023-01-20T19:40:35.451Z,12.40
2023-01-20T19:43:03.245Z,12.50
2023-01-20T19:45:44.730Z,12.50
2023-01-20T19:48:12.360Z,12.50
2023-01-20T19:50:39.662Z,12.50
2023-01-20T19:53:07.363Z,12.50
2023-01-20T19:55:34.435Z,12.40
2023-01-20T19:58:01.088Z,12.40
2023-01-20T20:00:27.804Z,12.40
2023-01-20T20:02:54.825Z,12.40
2023-01-20T20:05:21.625Z,12.40
2023-01-20T20:07:48.446Z,12.50
2023-01-20T20:10:18.329Z,12.50
2023-01-20T20:12:45.385Z,12.70
2023-01-20T20:15:12.258Z,12.70
2023-01-20T20:17:38.966Z,12.70
2023-01-20T20:20:06.020Z,12.70
2023-01-20T20:22:32.774Z,12.70
2023-01-20T20:24:59.393Z,12.70
2023-01-20T20:27:26.148Z,12.70
2023-01-20T20:29:54.557Z,12.70
2023-01-20T20:32:21.278Z,12.70
2023-01-20T20:34:48.015Z,12.70
2023-01-20T20:37:14.772Z,12.80
2023-01-20T20:39:41.392Z,12.80
2023-01-20T20:42:08.129Z,12.90
2023-01-20T20:44:34.847Z,12.90
2023-01-20T20:47:01.669Z,13.00
2023-01-20T20:49:28.576Z,13.00
2023-01-20T20:51:56.385Z,13.00
2023-01-20T20:54:23.083Z,13.00
2023-01-20T20:56:49.865Z,13.10
2023-01-20T20:59:16.655Z,13.10
2023-01-20T21:01:43.329Z,13.10
2023-01-20T21:04:11.475Z,13.10
2023-01-20T21:06:38.182Z,13.10
2023-01-20T21:09:04.932Z,13.10
2023-01-20T21:11:32.143Z,13.10
2023-01-20T21:13:59.173Z,13.20
2023-01-20T21:16:26.272Z,13.20
2023-01-20T21:18:56.166Z,13.20
2023-01-20T21:21:23.548Z,13.20
2023-01-20T21:23:52.268Z,13.20
2023-01-20T21:26:19.416Z,13.20
2023-01-20T21:28:49.048Z,13.20
2023-01-20T21:31:19.160Z,13.20
2023-01-20T21:33:46.577Z,13.20
2023-01-20T21:36:13.392Z,13.10
2023-01-20T21:38:46.459Z,13.10
2023-01-20T21:41:14.892Z,13.10
2023-01-20T21:44:02.202Z,13.20
2023-01-20T21:46:31.345Z,13.20
2023-01-20T21:49:16.750Z,13.20
2023-01-20T21:52:02.288Z,13.20
2023-01-20T21:54:30.150Z,13.20
2023-01-20T21:56:57.428Z,13.20
2023-01-20T21:59:24.261Z,13.20
2023-01-20T22:01:51.313Z,13.10
2023-01-20T22:04:18.746Z,13.10
2023-01-20T22:06:45.889Z,13.10
2023-01-20T22:09:12.949Z,13.10
2023-01-20T22:11:39.661Z,13.10
2023-01-20T22:14:06.397Z,13.10
2023-01-20T22:16:33.119Z,13.10
2023-01-20T22:18:59.800Z,13.20
2023-01-20T22:21:26.695Z,13.20
2023-01-20T22:23:53.808Z,13.20
2023-01-20T22:26:20.483Z,13.20
2023-01-20T22:28:47.175Z,13.20
2023-01-20T22:31:21.699Z,13.20
2023-01-20T22:33:52.654Z,13.20
2023-01-20T22:36:20.488Z,13.20
2023-01-20T22:38:49.515Z,13.20
2023-01-20T22:41:16.449Z,13.20
2023-01-20T22:43:44.285Z,13.20
2023-01-20T22:46:13.435Z,13.30
2023-01-20T22:48:40.958Z,13.20
2023-01-20T22:51:09.108Z,13.20
2023-01-20T22:53:36.600Z,13.20
2023-01-20T22:56:04.745Z,13.20
2023-01-20T22:58:32.124Z,13.20
2023-01-20T23:00:59.428Z,13.20
2023-01-20T23:03:26.941Z,13.20
2023-01-20T23:05:56.883Z,13.20
2023-01-20T23:08:24.707Z,13.20
2023-01-20T23:11:04.125Z,12.90
2023-01-20T23:13:31.045Z,12.50
2023-01-20T23:15:58.016Z,12.10
2023-01-20T23:18:25.059Z,11.80
2023-01-20T23:20:53.707Z,11.40
2023-01-20T23:23:21.790Z,11.10
2023-01-20T23:25:48.844Z,10.90
2023-01-20T23:28:16.445Z,10.60
2023-01-20T23:30:43.818Z,10.40
2023-01-20T23:33:11.163Z,10.20
2023-01-20T23:35:40.952Z,10.10
2023-01-20T23:38:08.467Z,9.90
2023-01-20T23:40:35.746Z,9.70
2023-01-20T23:43:02.501Z,9.60
2023-01-20T23:45:29.347Z,9.40
2023-01-20T23:47:56.111Z,9.30
2023-01-20T23:50:22.802Z,9.20
2023-01-20T23:52:49.521Z,9.10
2023-01-20T23:55:16.305Z,8.90
2023-01-20T23:57:43.016Z,8.80
